Aviation Digital Data Service (ADDS)

Output produced by METARs form (2310 UTC 15 August 2018)
found at http://www.aviationweather.gov/adds/metars/
 
TAF KFAF 151800Z 1518/1624 20006KT 9999 FEW200 QNH3000INS 
     BECMG 1620/1621 18006KT 9999 SCT040 BKN060 QNH3006INS TX33/1617Z TN24/1608Z LAST NO AMDS AFT 1603 NEXT 1610
       
KFAR 151720Z 1518/1618 VRB04KT P6SM SKC
       
KFAT 151722Z 1518/1618 30007KT P6SM SKC
       
KFAY 152310Z 1523/1618 26009KT 6SM -RA BR OVC060 
     FM160200 18004KT P6SM BKN050 
     FM160900 20003KT 5SM BR FEW060 
     FM161200 21005KT P6SM SCT035 
     FM161600 23008KT P6SM SCT045
       
TAF AMD KFBG 152120Z 1521/1623 22006KT 9999 VCSH SCT050 QNH3002INS 
     TEMPO 1521/1524 VCTS SCT050CB 
     BECMG 1523/1524 22006KT 9999 NSW SCT050 SCT250 QNH3002INS TX33/1521Z TN22/1611Z
       
TAF KFCS 152105Z 1521/1703 15012KT 9999 VCTS SCT090CB SCT130 QNH3007INS 
     TEMPO 1521/1601 VRB20G35KT 8000 -TSRA BKN080CB 
     BECMG 1600/1601 18012KT 9999 VCSH SCT140 QNH3011INS 
     BECMG 1603/1604 25009KT 9999 NSW FEW100 SCT130 QNH3013INS 
     BECMG 1614/1615 34012G18KT 9999 FEW120 QNH3016INS 
     BECMG 1618/1619 12009KT 9999 VCTS SCT080CB SCT110 QNH3014INS 
     TEMPO 1622/1703 VRB15G30KT 9000 -TSRA BKN060CB TX27/1522Z TN15/1612Z
       
KFDY 151720Z 1518/1618 21009KT P6SM OVC200 
     FM160000 20005KT P6SM VCSH OVC050 
     FM160600 19005KT P6SM VCSH OVC035 
     FM160900 18008KT 5SM -SHRA VCTS OVC030CB 
     FM161500 19010KT 4SM -SHRA BR OVC020
       
TAF AMD KFFO 152105Z 1521/1701 21009KT 4800 SHRA VCTS BKN040CB QNH3004INS 
     TEMPO 1521/1524 22010G20KT 3200 -TSRA OVC030CB 
     BECMG 1523/1524 20006KT 9999 NSW FEW030 BKN050 QNH3003INS 
     BECMG 1608/1609 18009KT 6000 -SHRA OVC015 QNH3002INS 
     TEMPO 1609/1615 4800 SHRA 
     BECMG 1614/1615 18010G15KT 8000 -SHRA OVC015 QNH2998INS 
     BECMG 1623/1624 20006KT 8000 -SHRA FEW015 OVC025 QNH2998INS TX24/1521Z TN21/1610Z
       
TAF AMD KFHU 152202Z 1522/1624 08006KT 9999 VCTS SCT080CB QNH3010INS 
     TEMPO 1522/1602 8000 -TSRA BKN080CB 
     BECMG 1602/1603 23009KT 8000 -SHRA VCTS SCT080CB QNH3012INS 
     TEMPO 1603/1606 6000 TSRA BKN080CB 
     BECMG 1606/1607 23009KT 9000 -SHRA BKN100 QNH3017INS 
     BECMG 1609/1610 VRB06KT 9999 VCSH SCT100 BKN150 QNH3019INS 
     BECMG 1613/1614 VRB06KT 9999 NSW SCT100 BKN150 QNH3020INS 
     BECMG 1619/1620 26009KT 9999 VCSH BKN100 QNH3016INS 
     BECMG 1622/1623 27009KT 9000 -SHRA BKN080 QNH3010INS TX27/1523Z TN18/1611Z
       
KFKL 151732Z 1518/1618 VRB05KT P6SM FEW040 BKN150 
     FM161200 VRB03KT P6SM BKN050 
     FM161700 18007KT P6SM -SHRA VCTS OVC035CB
       
KFLG 152116Z 1521/1618 18007KT P6SM SCT100 
     TEMPO 1522/1601 VRB10G20KT 6SM -TSRA BKN060CB BKN090 
     FM160100 VRB05KT P6SM FEW080 BKN120
       
KFLL 152052Z 1521/1624 13012KT P6SM FEW030 FEW090 SCT150 
     FM160100 10006KT P6SM FEW040 SCT250 
     FM161400 12012KT P6SM SCT035
       
KFLO 151746Z 1518/1618 22005KT P6SM VCTS SCT045CB 
     FM160100 20002KT P6SM SCT150 
     FM160800 00000KT 3SM BR SCT003 
     FM161300 24004KT P6SM SCT250
       
KFMH 151941Z 1520/1618 14006KT P6SM FEW030 BKN035 BKN045 
     FM152200 21007KT P6SM BKN100 
     FM160100 24006KT P6SM FEW250 
     FM160800 27006KT P6SM FEW250 
     FM161500 30008KT P6SM FEW200
       
KFMN 151730Z 1518/1618 09006KT P6SM BKN120 
     FM151900 27009KT P6SM SCT120 
     FM160000 30011KT P6SM VCSH SCT070 BKN120 
     FM160600 09006KT P6SM BKN140 
     FM161700 24006KT P6SM FEW070 SCT150
       
KFMY 151720Z 1518/1618 17006KT P6SM SCT040 SCT060 
     FM151900 20008KT P6SM VCTS SCT045CB BKN060 
     TEMPO 1519/1522 VRB15G25KT 2SM +TSRA BKN030CB 
     FM160200 09003KT P6SM FEW025 SCT120 BKN250 
     FM161400 13008KT P6SM SCT025 SCT250
       
KFNT 151727Z 1518/1618 24008KT P6SM FEW050 OVC200 
     FM160000 23006KT P6SM SCT045 BKN070 OVC150 
     FM161000 20005KT P6SM VCSH OVC045 
     FM161300 20009KT 4SM -SHRA SCT020 OVC040 
     TEMPO 1614/1618 3SM RA SCT012 OVC020
       
KFOD 151732Z 1518/1618 VRB03KT P6SM FEW017 SCT028 BKN035 
     FM152100 02004KT P6SM VCSH SCT100 
     FM160100 03004KT P6SM SCT100 
     FM161100 VRB03KT P6SM BKN060 
     FM161400 36004KT P6SM BKN020 
     FM161700 36004KT P6SM BKN090
       
KFOE 151738Z 1518/1618 34005KT P6SM BKN025 
     FM151900 34005KT P6SM SCT030 BKN040 
     FM160700 VRB02KT 3SM BR FEW060 SCT200 
     FM161300 VRB03KT P6SM FEW070 SCT120
       
KFPR 151759Z 1518/1618 11010KT P6SM VCSH FEW035 
     FM151900 11011KT P6SM VCSH FEW040 
     FM160000 13006KT P6SM FEW025 
     FM161400 12009KT P6SM SCT025
       
TAF KFRI 151600Z 1516/1622 34009KT 9999 FEW010 BKN015 OVC030 QNH2988INS 
     TEMPO 1516/1517 SCT015 BKN030 
     BECMG 1517/1518 32012KT 9999 SCT015 BKN025 BKN050 QNH2987INS 
     BECMG 1519/1520 32009KT 9999 SCT025 BKN040 QNH2984INS 
     BECMG 1523/1524 33009KT 9999 SCT030 QNH2986INS 
     BECMG 1614/1615 08006KT 9999 FEW007 QNH2992INS 
     BECMG 1619/1620 10006KT 8000 -SHRA VCTS SCT030CB BKN040 BKN075 QNH2994INS 
     TEMPO 1621/1622 VRB15G25KT 6000 -TSRA BKN025CB TX29/1521Z TN19/1612Z
       
KFSD 152237Z 1523/1618 VRB04KT P6SM VCTS SCT025CB BKN040 
     TEMPO 1523/1524 5SM TSRA BKN025CB 
     FM160000 05005KT P6SM SCT250 
     FM160600 02003KT P6SM VCSH BKN100 
     FM161000 VRB02KT 6SM SHRA VCTS OVC015CB 
     FM161400 VRB04KT P6SM VCSH BKN080
       
TAF KFSI 152100Z 1521/1703 VRB06KT 9999 SCT060 QNH2986INS 
     BECMG 1615/1616 21010G18KT 9999 FEW100 QNH2992INS 
     BECMG 1623/1624 VRB06KT 9999 FEW080 QNH2990INS TX35/1522Z TN24/1612Z
       
KFSM 152044Z 1521/1618 11005KT P6SM VCSH SCT025 OVC045 
     FM160000 VRB03KT P6SM BKN040 
     FM160300 08004KT P6SM BKN050 
     FM161600 25006KT P6SM SCT040 BKN250
       
KFST 151926Z 1519/1618 16011KT P6SM FEW250 
     TEMPO 1519/1523 VRB15G25KT TSRA BKN100CB 
     FM152300 14014G22KT P6SM SCT250 
     FM160600 16010KT P6SM FEW250
       
TAF KFTK 151700Z 1517/1623 16009KT 8000 -SHRA SCT015 BKN040 OVC060 QNH2999INS 
     BECMG 1520/1521 14010G15KT 8000 -SHRA FEW030 BKN050 QNH2997INS 
     TEMPO 1522/1601 15015G25KT 6000 -TSRA OVC040CB 
     BECMG 1602/1603 14006KT 8000 -SHRA FEW030 BKN040 OVC100 QNH3001INS 
     BECMG 1605/1606 14006KT 8000 -SHRA OVC015 QNH2999INS 
     BECMG 1614/1615 21015G25KT 8000 -SHRA FEW025 BKN035 QNH2997INS TX25/1520Z TN18/1610Z
       
KFTW 152050Z 1521/1618 19011KT P6SM FEW050
       
KFTY 151720Z 1518/1618 27004KT P6SM FEW050 SCT250 
     FM160100 00000KT P6SM FEW060 SCT120 
     FM161600 20005KT P6SM SCT045
       
KFVE 152155Z 1522/1618 35005KT P6SM VCTS SCT035CB BKN050 
     FM152300 33006KT P6SM BKN045 
     FM160300 32006KT P6SM SCT110
       
KFWA 151731Z 1518/1618 19009KT P6SM FEW030 BKN080 
     TEMPO 1600/1604 4SM -SHRA OVC020 
     FM160400 16008KT P6SM SHRA VCTS OVC025CB 
     FM160800 17008KT P6SM VCSH OVC015
       
KFXE 152052Z 1521/1618 13010KT P6SM SCT030 SCT250 
     FM160200 10006KT P6SM FEW030 SCT250 
     FM161400 12012KT P6SM SCT035
       
KFYV 152041Z 1521/1618 19012KT P6SM OVC025 
     TEMPO 1521/1524 BKN015 
     FM160000 23004KT P6SM BKN050 
     TEMPO 1610/1613 BKN025